sensor_id;sensor_type;location;lat;lon;timestamp;temperature;humidity
61351;DHT22;47119;49.130;9.218;2023-04-24T00:02:12;13.93;75.29
61351;DHT22;47119;49.130;9.218;2023-04-24T00:04:45;13.95;75.15
61351;DHT22;47119;49.130;9.218;2023-04-24T00:07:12;13.95;75.30
61351;DHT22;47119;49.130;9.218;2023-04-24T00:09:42;13.94;75.20
61351;DHT22;47119;49.130;9.218;2023-04-24T00:12:09;13.95;75.37
61351;DHT22;47119;49.130;9.218;2023-04-24T00:14:36;13.97;75.30
61351;DHT22;47119;49.130;9.218;2023-04-24T00:17:04;13.94;75.08
61351;DHT22;47119;49.130;9.218;2023-04-24T00:19:31;13.95;75.19
61351;DHT22;47119;49.130;9.218;2023-04-24T00:22:04;13.94;75.11
61351;DHT22;47119;49.130;9.218;2023-04-24T00:24:34;13.97;75.10
61351;DHT22;47119;49.130;9.218;2023-04-24T00:27:03;13.95;75.06
61351;DHT22;47119;49.130;9.218;2023-04-24T00:29:35;13.97;74.94
61351;DHT22;47119;49.130;9.218;2023-04-24T00:32:05;13.97;75.08
61351;DHT22;47119;49.130;9.218;2023-04-24T00:34:34;13.95;75.04
61351;DHT22;47119;49.130;9.218;2023-04-24T00:37:01;14.00;74.93
61351;DHT22;47119;49.130;9.218;2023-04-24T00:39:31;13.97;75.21
61351;DHT22;47119;49.130;9.218;2023-04-24T00:42:01;13.98;74.81
61351;DHT22;47119;49.130;9.218;2023-04-24T00:44:33;13.97;74.95
61351;DHT22;47119;49.130;9.218;2023-04-24T00:47:01;14.01;74.78
61351;DHT22;47119;49.130;9.218;2023-04-24T00:49:28;13.97;75.16
61351;DHT22;47119;49.130;9.218;2023-04-24T00:51:57;13.98;74.84
61351;DHT22;47119;49.130;9.218;2023-04-24T00:54:24;13.98;74.98
61351;DHT22;47119;49.130;9.218;2023-04-24T00:56:55;13.95;75.06
61351;DHT22;47119;49.130;9.218;2023-04-24T00:59:22;13.95;74.99
61351;DHT22;47119;49.130;9.218;2023-04-24T01:01:49;13.95;75.08
61351;DHT22;47119;49.130;9.218;2023-04-24T01:04:20;13.95;74.99
61351;DHT22;47119;49.130;9.218;2023-04-24T01:06:50;13.94;74.87
61351;DHT22;47119;49.130;9.218;2023-04-24T01:09:24;13.95;74.65
61351;DHT22;47119;49.130;9.218;2023-04-24T01:11:52;13.95;74.75
61351;DHT22;47119;49.130;9.218;2023-04-24T01:14:23;13.98;74.66
61351;DHT22;47119;49.130;9.218;2023-04-24T01:16:52;13.97;74.70
61351;DHT22;47119;49.130;9.218;2023-04-24T01:19:22;14.01;74.60
61351;DHT22;47119;49.130;9.218;2023-04-24T01:21:53;13.97;74.77
61351;DHT22;47119;49.130;9.218;2023-04-24T01:24:26;13.97;74.73
61351;DHT22;47119;49.130;9.218;2023-04-24T01:26:53;13.94;74.71
61351;DHT22;47119;49.130;9.218;2023-04-24T01:29:20;13.94;74.87
61351;DHT22;47119;49.130;9.218;2023-04-24T01:31:50;13.97;74.79
61351;DHT22;47119;49.130;9.218;2023-04-24T01:34:20;13.98;74.71
61351;DHT22;47119;49.130;9.218;2023-04-24T01:36:49;13.95;74.85
61351;DHT22;47119;49.130;9.218;2023-04-24T01:39:19;13.98;74.77
61351;DHT22;47119;49.130;9.218;2023-04-24T01:41:50;13.93;74.80
61351;DHT22;47119;49.130;9.218;2023-04-24T01:44:19;13.98;74.75
61351;DHT22;47119;49.130;9.218;2023-04-24T01:46:51;13.95;74.60
61351;DHT22;47119;49.130;9.218;2023-04-24T01:49:23;13.94;74.51
61351;DHT22;47119;49.130;9.218;2023-04-24T01:51:50;13.97;74.48
61351;DHT22;47119;49.130;9.218;2023-04-24T01:54:17;13.94;74.46
61351;DHT22;47119;49.130;9.218;2023-04-24T01:56:45;13.97;74.44
61351;DHT22;47119;49.130;9.218;2023-04-24T01:59:17;14.00;74.50
61351;DHT22;47119;49.130;9.218;2023-04-24T02:01:44;13.97;74.57
61351;DHT22;47119;49.130;9.218;2023-04-24T02:04:13;13.94;74.54
61351;DHT22;47119;49.130;9.218;2023-04-24T02:06:40;13.93;74.49
61351;DHT22;47119;49.130;9.218;2023-04-24T02:09:10;13.95;74.36
61351;DHT22;47119;49.130;9.218;2023-04-24T02:11:41;13.97;74.50
61351;DHT22;47119;49.130;9.218;2023-04-24T02:14:08;13.93;74.44
61351;DHT22;47119;49.130;9.218;2023-04-24T02:16:43;13.95;74.31
61351;DHT22;47119;49.130;9.218;2023-04-24T02:19:15;13.94;74.22
61351;DHT22;47119;49.130;9.218;2023-04-24T02:21:42;13.95;74.32
61351;DHT22;47119;49.130;9.218;2023-04-24T02:24:09;13.93;74.30
61351;DHT22;47119;49.130;9.218;2023-04-24T02:26:36;13.94;74.06
61351;DHT22;47119;49.130;9.218;2023-04-24T02:29:03;13.97;74.06
61351;DHT22;47119;49.130;9.218;2023-04-24T02:31:32;13.94;74.04
61351;DHT22;47119;49.130;9.218;2023-04-24T02:34:01;13.95;74.14
61351;DHT22;47119;49.130;9.218;2023-04-24T02:36:28;13.97;74.00
61351;DHT22;47119;49.130;9.218;2023-04-24T02:41:26;13.98;74.04
61351;DHT22;47119;49.130;9.218;2023-04-24T02:43:57;13.97;74.03
61351;DHT22;47119;49.130;9.218;2023-04-24T02:46:24;13.97;74.02
61351;DHT22;47119;49.130;9.218;2023-04-24T02:48:54;13.93;74.06
61351;DHT22;47119;49.130;9.218;2023-04-24T02:51:22;13.95;73.93
61351;DHT22;47119;49.130;9.218;2023-04-24T02:53:54;13.93;74.04
61351;DHT22;47119;49.130;9.218;2023-04-24T02:56:23;13.94;73.95
61351;DHT22;47119;49.130;9.218;2023-04-24T02:58:50;13.97;73.89
61351;DHT22;47119;49.130;9.218;2023-04-24T03:01:17;13.95;74.01
61351;DHT22;47119;49.130;9.218;2023-04-24T03:03:46;13.98;73.90
61351;DHT22;47119;49.130;9.218;2023-04-24T03:06:13;13.93;74.01
61351;DHT22;47119;49.130;9.218;2023-04-24T03:08:41;13.94;73.87
61351;DHT22;47119;49.130;9.218;2023-04-24T03:11:12;13.97;73.93
61351;DHT22;47119;49.130;9.218;2023-04-24T03:13:44;13.97;73.85
61351;DHT22;47119;49.130;9.218;2023-04-24T03:16:18;13.98;73.86
61351;DHT22;47119;49.130;9.218;2023-04-24T03:18:46;13.97;73.87
61351;DHT22;47119;49.130;9.218;2023-04-24T03:21:15;13.95;74.04
61351;DHT22;47119;49.130;9.218;2023-04-24T03:23:45;13.97;73.87
61351;DHT22;47119;49.130;9.218;2023-04-24T03:26:16;13.98;74.03
61351;DHT22;47119;49.130;9.218;2023-04-24T03:28:55;13.97;73.90
61351;DHT22;47119;49.130;9.218;2023-04-24T03:31:27;13.94;74.06
61351;DHT22;47119;49.130;9.218;2023-04-24T03:33:54;13.93;74.08
61351;DHT22;47119;49.130;9.218;2023-04-24T03:36:26;13.98;73.85
61351;DHT22;47119;49.130;9.218;2023-04-24T03:38:55;13.97;74.05
61351;DHT22;47119;49.130;9.218;2023-04-24T03:41:26;13.93;74.16
61351;DHT22;47119;49.130;9.218;2023-04-24T03:44:08;13.97;74.13
61351;DHT22;47119;49.130;9.218;2023-04-24T03:46:38;13.94;74.19
61351;DHT22;47119;49.130;9.218;2023-04-24T03:49:06;13.95;74.18
61351;DHT22;47119;49.130;9.218;2023-04-24T03:51:37;13.97;74.16
61351;DHT22;47119;49.130;9.218;2023-04-24T03:54:14;14.00;74.32
61351;DHT22;47119;49.130;9.218;2023-04-24T03:56:41;14.00;74.44
61351;DHT22;47119;49.130;9.218;2023-04-24T03:59:11;14.04;74.54
61351;DHT22;47119;49.130;9.218;2023-04-24T04:01:42;14.01;74.51
61351;DHT22;47119;49.130;9.218;2023-04-24T04:04:15;14.04;74.49
61351;DHT22;47119;49.130;9.218;2023-04-24T04:06:44;14.05;74.64
61351;DHT22;47119;49.130;9.218;2023-04-24T04:09:13;14.08;74.43
61351;DHT22;47119;49.130;9.218;2023-04-24T04:11:43;14.05;74.64
61351;DHT22;47119;49.130;9.218;2023-04-24T04:14:11;14.11;74.68
61351;DHT22;47119;49.130;9.218;2023-04-24T04:16:40;14.17;74.47
61351;DHT22;47119;49.130;9.218;2023-04-24T04:19:10;14.14;74.34
61351;DHT22;47119;49.130;9.218;2023-04-24T04:21:37;14.10;74.74
61351;DHT22;47119;49.130;9.218;2023-04-24T04:24:28;14.15;74.63
61351;DHT22;47119;49.130;9.218;2023-04-24T04:26:57;14.15;74.69
61351;DHT22;47119;49.130;9.218;2023-04-24T04:29:28;14.12;75.01
61351;DHT22;47119;49.130;9.218;2023-04-24T04:32:00;14.05;75.16
61351;DHT22;47119;49.130;9.218;2023-04-24T04:34:30;14.00;75.36
61351;DHT22;47119;49.130;9.218;2023-04-24T04:36:59;14.05;75.40
61351;DHT22;47119;49.130;9.218;2023-04-24T04:39:43;14.05;75.26
61351;DHT22;47119;49.130;9.218;2023-04-24T04:42:16;14.02;75.24
61351;DHT22;47119;49.130;9.218;2023-04-24T04:44:44;14.08;75.01
61351;DHT22;47119;49.130;9.218;2023-04-24T04:47:29;13.98;75.06
61351;DHT22;47119;49.130;9.218;2023-04-24T04:49:58;13.98;75.33
61351;DHT22;47119;49.130;9.218;2023-04-24T04:52:35;13.94;75.26
61351;DHT22;47119;49.130;9.218;2023-04-24T04:55:17;13.94;75.43
61351;DHT22;47119;49.130;9.218;2023-04-24T04:58:08;13.93;75.49
61351;DHT22;47119;49.130;9.218;2023-04-24T05:00:35;13.94;75.21
61351;DHT22;47119;49.130;9.218;2023-04-24T05:03:14;13.94;75.27
61351;DHT22;47119;49.130;9.218;2023-04-24T05:05:41;13.97;75.15
61351;DHT22;47119;49.130;9.218;2023-04-24T05:08:12;13.94;75.19
61351;DHT22;47119;49.130;9.218;2023-04-24T05:10:42;13.87;75.39
61351;DHT22;47119;49.130;9.218;2023-04-24T05:13:11;13.84;75.39
61351;DHT22;47119;49.130;9.218;2023-04-24T05:15:39;13.80;75.61
61351;DHT22;47119;49.130;9.218;2023-04-24T05:18:08;13.81;75.70
61351;DHT22;47119;49.130;9.218;2023-04-24T05:20:35;13.78;75.92
61351;DHT22;47119;49.130;9.218;2023-04-24T05:23:07;13.77;75.89
61351;DHT22;47119;49.130;9.218;2023-04-24T05:25:43;13.83;75.54
61351;DHT22;47119;49.130;9.218;2023-04-24T05:28:19;13.84;75.39
61351;DHT22;47119;49.130;9.218;2023-04-24T05:31:00;13.81;75.33
61351;DHT22;47119;49.130;9.218;2023-04-24T05:33:30;13.78;75.48
61351;DHT22;47119;49.130;9.218;2023-04-24T05:35:59;13.80;75.33
61351;DHT22;47119;49.130;9.218;2023-04-24T05:38:31;13.84;75.23
61351;DHT22;47119;49.130;9.218;2023-04-24T05:41:02;13.81;75.15
61351;DHT22;47119;49.130;9.218;2023-04-24T05:43:32;13.78;75.20
61351;DHT22;47119;49.130;9.218;2023-04-24T05:46:01;13.81;75.25
61351;DHT22;47119;49.130;9.218;2023-04-24T06:03:40;13.73;74.92
61351;DHT22;47119;49.130;9.218;2023-04-24T06:06:10;13.80;74.63
61351;DHT22;47119;49.130;9.218;2023-04-24T06:08:37;13.83;74.72
61351;DHT22;47119;49.130;9.218;2023-04-24T06:11:06;13.81;74.46
61351;DHT22;47119;49.130;9.218;2023-04-24T06:13:33;13.87;74.26
61351;DHT22;47119;49.130;9.218;2023-04-24T06:16:20;13.85;74.04
61351;DHT22;47119;49.130;9.218;2023-04-24T06:18:55;13.85;74.14
61351;DHT22;47119;49.130;9.218;2023-04-24T06:21:24;13.87;73.74
61351;DHT22;47119;49.130;9.218;2023-04-24T06:23:53;13.83;73.82
61351;DHT22;47119;49.130;9.218;2023-04-24T06:26:21;13.84;73.91
61351;DHT22;47119;49.130;9.218;2023-04-24T06:28:52;13.84;73.68
61351;DHT22;47119;49.130;9.218;2023-04-24T06:31:20;13.88;73.71
61351;DHT22;47119;49.130;9.218;2023-04-24T06:33:48;14.01;73.06
61351;DHT22;47119;49.130;9.218;2023-04-24T06:52:42;13.98;73.19
61351;DHT22;47119;49.130;9.218;2023-04-24T06:55:11;13.98;73.08
61351;DHT22;47119;49.130;9.218;2023-04-24T06:57:40;14.01;72.78
61351;DHT22;47119;49.130;9.218;2023-04-24T07:00:11;14.04;72.88
61351;DHT22;47119;49.130;9.218;2023-04-24T07:02:39;14.05;73.12
61351;DHT22;47119;49.130;9.218;2023-04-24T07:05:08;14.07;72.67
61351;DHT22;47119;49.130;9.218;2023-04-24T07:07:37;14.07;72.90
61351;DHT22;47119;49.130;9.218;2023-04-24T07:10:11;14.10;72.19
61351;DHT22;47119;49.130;9.218;2023-04-24T07:12:44;14.10;71.93
61351;DHT22;47119;49.130;9.218;2023-04-24T07:15:14;14.15;72.38
61351;DHT22;47119;49.130;9.218;2023-04-24T07:17:41;14.14;71.84
61351;DHT22;47119;49.130;9.218;2023-04-24T07:20:12;14.08;71.66
61351;DHT22;47119;49.130;9.218;2023-04-24T07:22:41;14.04;71.07
61351;DHT22;47119;49.130;9.218;2023-04-24T07:25:12;14.05;71.58
61351;DHT22;47119;49.130;9.218;2023-04-24T07:27:39;14.04;71.17
61351;DHT22;47119;49.130;9.218;2023-04-24T07:30:07;14.01;71.47
61351;DHT22;47119;49.130;9.218;2023-04-24T07:32:35;14.05;70.61
61351;DHT22;47119;49.130;9.218;2023-04-24T07:35:07;14.08;70.87
61351;DHT22;47119;49.130;9.218;2023-04-24T07:37:35;14.12;71.17
61351;DHT22;47119;49.130;9.218;2023-04-24T07:40:03;14.07;70.23
61351;DHT22;47119;49.130;9.218;2023-04-24T07:42:31;14.04;70.05
61351;DHT22;47119;49.130;9.218;2023-04-24T07:45:00;14.07;70.05
61351;DHT22;47119;49.130;9.218;2023-04-24T07:47:32;14.10;70.14
61351;DHT22;47119;49.130;9.218;2023-04-24T07:49:59;14.12;70.52
61351;DHT22;47119;49.130;9.218;2023-04-24T07:52:29;14.12;69.36
61351;DHT22;47119;49.130;9.218;2023-04-24T07:55:05;14.08;68.68
61351;DHT22;47119;49.130;9.218;2023-04-24T07:57:36;14.02;68.79
61351;DHT22;47119;49.130;9.218;2023-04-24T08:00:04;14.04;68.92
61351;DHT22;47119;49.130;9.218;2023-04-24T08:02:37;14.07;69.08
61351;DHT22;47119;49.130;9.218;2023-04-24T08:05:06;14.10;69.32
61351;DHT22;47119;49.130;9.218;2023-04-24T08:07:33;14.11;69.45
61351;DHT22;47119;49.130;9.218;2023-04-24T08:10:03;14.08;68.50
61351;DHT22;47119;49.130;9.218;2023-04-24T08:12:31;14.11;68.55
61351;DHT22;47119;49.130;9.218;2023-04-24T08:15:03;14.11;68.13
61351;DHT22;47119;49.130;9.218;2023-04-24T08:17:33;14.10;69.10
61351;DHT22;47119;49.130;9.218;2023-04-24T08:20:08;14.15;68.20
61351;DHT22;47119;49.130;9.218;2023-04-24T08:22:39;14.14;68.69
61351;DHT22;47119;49.130;9.218;2023-04-24T08:25:11;14.07;68.26
61351;DHT22;47119;49.130;9.218;2023-04-24T08:27:40;14.07;68.18
61351;DHT22;47119;49.130;9.218;2023-04-24T08:30:09;14.11;68.19
61351;DHT22;47119;49.130;9.218;2023-04-24T08:32:37;14.14;68.53
61351;DHT22;47119;49.130;9.218;2023-04-24T08:35:07;14.14;67.76
61351;DHT22;47119;49.130;9.218;2023-04-24T08:37:35;14.11;67.55
61351;DHT22;47119;49.130;9.218;2023-04-24T08:40:08;14.15;68.15
61351;DHT22;47119;49.130;9.218;2023-04-24T08:42:41;14.11;67.66
61351;DHT22;47119;49.130;9.218;2023-04-24T08:45:13;14.11;67.38
61351;DHT22;47119;49.130;9.218;2023-04-24T08:47:42;14.17;68.00
61351;DHT22;47119;49.130;9.218;2023-04-24T08:50:11;14.17;67.96
61351;DHT22;47119;49.130;9.218;2023-04-24T08:52:44;14.08;68.31
61351;DHT22;47119;49.130;9.218;2023-04-24T08:55:12;14.11;68.13
61351;DHT22;47119;49.130;9.218;2023-04-24T08:57:43;14.11;68.50
61351;DHT22;47119;49.130;9.218;2023-04-24T09:00:16;14.07;68.48
61351;DHT22;47119;49.130;9.218;2023-04-24T09:02:45;14.05;68.38
61351;DHT22;47119;49.130;9.218;2023-04-24T09:05:17;14.02;68.73
61351;DHT22;47119;49.130;9.218;2023-04-24T09:07:50;14.02;68.64
61351;DHT22;47119;49.130;9.218;2023-04-24T09:10:26;14.01;68.13
61351;DHT22;47119;49.130;9.218;2023-04-24T09:13:37;13.98;67.88
61351;DHT22;47119;49.130;9.218;2023-04-24T09:22:07;14.05;67.67
61351;DHT22;47119;49.130;9.218;2023-04-24T09:24:39;14.08;67.50
61351;DHT22;47119;49.130;9.218;2023-04-24T09:27:06;14.10;67.37
61351;DHT22;47119;49.130;9.218;2023-04-24T09:29:36;14.12;67.35
61351;DHT22;47119;49.130;9.218;2023-04-24T09:32:18;14.12;67.70
61351;DHT22;47119;49.130;9.218;2023-04-24T09:34:47;14.12;66.94
61351;DHT22;47119;49.130;9.218;2023-04-24T09:37:29;14.14;66.78
61351;DHT22;47119;49.130;9.218;2023-04-24T09:40:09;14.15;66.43
61351;DHT22;47119;49.130;9.218;2023-04-24T09:42:44;14.11;66.74
61351;DHT22;47119;49.130;9.218;2023-04-24T09:45:12;14.12;67.08
61351;DHT22;47119;49.130;9.218;2023-04-24T09:47:40;14.10;66.86
61351;DHT22;47119;49.130;9.218;2023-04-24T09:50:15;14.15;66.96
61351;DHT22;47119;49.130;9.218;2023-04-24T09:52:46;14.20;66.73
61351;DHT22;47119;49.130;9.218;2023-04-24T09:55:24;14.18;66.13
61351;DHT22;47119;49.130;9.218;2023-04-24T09:57:53;14.12;66.09
61351;DHT22;47119;49.130;9.218;2023-04-24T10:00:25;14.15;66.57
61351;DHT22;47119;49.130;9.218;2023-04-24T10:02:57;14.22;65.67
61351;DHT22;47119;49.130;9.218;2023-04-24T10:05:29;14.21;66.30
61351;DHT22;47119;49.130;9.218;2023-04-24T10:08:03;14.18;66.56
61351;DHT22;47119;49.130;9.218;2023-04-24T10:10:37;14.22;66.45
61351;DHT22;47119;49.130;9.218;2023-04-24T10:13:09;14.25;65.86
61351;DHT22;47119;49.130;9.218;2023-04-24T10:15:43;14.21;65.75
61351;DHT22;47119;49.130;9.218;2023-04-24T10:18:15;14.15;65.57
61351;DHT22;47119;49.130;9.218;2023-04-24T10:20:43;14.12;64.79
61351;DHT22;47119;49.130;9.218;2023-04-24T10:23:14;14.12;65.64
61351;DHT22;47119;49.130;9.218;2023-04-24T10:25:48;14.12;65.30
61351;DHT22;47119;49.130;9.218;2023-04-24T10:28:33;14.12;65.60
61351;DHT22;47119;49.130;9.218;2023-04-24T10:31:42;14.17;65.67
61351;DHT22;47119;49.130;9.218;2023-04-24T10:34:14;14.21;65.44
61351;DHT22;47119;49.130;9.218;2023-04-24T10:36:50;14.15;65.31
61351;DHT22;47119;49.130;9.218;2023-04-24T10:39:25;14.18;65.03
61351;DHT22;47119;49.130;9.218;2023-04-24T10:41:56;14.18;64.60
61351;DHT22;47119;49.130;9.218;2023-04-24T10:44:40;14.17;65.25
61351;DHT22;47119;49.130;9.218;2023-04-24T10:47:17;14.17;64.88
61351;DHT22;47119;49.130;9.218;2023-04-24T10:49:50;14.20;65.06
61351;DHT22;47119;49.130;9.218;2023-04-24T10:52:21;14.18;64.52
61351;DHT22;47119;49.130;9.218;2023-04-24T10:54:55;14.17;65.21
61351;DHT22;47119;49.130;9.218;2023-04-24T10:57:28;14.21;65.06
61351;DHT22;47119;49.130;9.218;2023-04-24T11:00:18;14.25;65.45
61351;DHT22;47119;49.130;9.218;2023-04-24T11:02:47;14.26;64.99
61351;DHT22;47119;49.130;9.218;2023-04-24T11:05:19;14.26;65.20
61351;DHT22;47119;49.130;9.218;2023-04-24T11:08:12;14.29;65.73
61351;DHT22;47119;49.130;9.218;2023-04-24T11:10:59;14.28;64.04
61351;DHT22;47119;49.130;9.218;2023-04-24T11:16:32;14.25;64.56
61351;DHT22;47119;49.130;9.218;2023-04-24T11:19:06;14.28;65.47
61351;DHT22;47119;49.130;9.218;2023-04-24T11:21:46;14.26;64.71
61351;DHT22;47119;49.130;9.218;2023-04-24T11:24:24;14.26;64.68
61351;DHT22;47119;49.130;9.218;2023-04-24T11:26:55;14.28;63.65
61351;DHT22;47119;49.130;9.218;2023-04-24T11:29:39;14.25;64.33
61351;DHT22;47119;49.130;9.218;2023-04-24T11:32:24;14.25;64.77
61351;DHT22;47119;49.130;9.218;2023-04-24T11:34:55;14.24;64.62
61351;DHT22;47119;49.130;9.218;2023-04-24T11:37:26;14.20;65.07
61351;DHT22;47119;49.130;9.218;2023-04-24T11:39:56;14.18;65.53
61351;DHT22;47119;49.130;9.218;2023-04-24T11:42:29;14.17;64.94
61351;DHT22;47119;49.130;9.218;2023-04-24T11:45:07;14.15;64.99
61351;DHT22;47119;49.130;9.218;2023-04-24T11:47:38;14.18;64.85
61351;DHT22;47119;49.130;9.218;2023-04-24T11:50:08;14.12;64.77
61351;DHT22;47119;49.130;9.218;2023-04-24T11:52:41;14.10;64.66
61351;DHT22;47119;49.130;9.218;2023-04-24T11:55:23;14.11;64.44
61351;DHT22;47119;49.130;9.218;2023-04-24T11:57:58;14.11;64.01
61351;DHT22;47119;49.130;9.218;2023-04-24T12:00:28;14.12;64.43
61351;DHT22;47119;49.130;9.218;2023-04-24T12:03:04;14.22;64.98
61351;DHT22;47119;49.130;9.218;2023-04-24T12:05:33;14.20;64.31
61351;DHT22;47119;49.130;9.218;2023-04-24T12:08:01;14.17;64.14
61351;DHT22;47119;49.130;9.218;2023-04-24T12:10:32;14.21;64.26
61351;DHT22;47119;49.130;9.218;2023-04-24T12:13:03;14.25;64.31
61351;DHT22;47119;49.130;9.218;2023-04-24T12:15:40;14.29;64.73
61351;DHT22;47119;49.130;9.218;2023-04-24T12:18:11;14.29;64.70
61351;DHT22;47119;49.130;9.218;2023-04-24T12:20:41;14.29;65.32
61351;DHT22;47119;49.130;9.218;2023-04-24T12:23:38;14.32;64.90
61351;DHT22;47119;49.130;9.218;2023-04-24T12:26:17;14.26;64.96
61351;DHT22;47119;49.130;9.218;2023-04-24T12:28:48;14.25;64.62
61351;DHT22;47119;49.130;9.218;2023-04-24T12:31:16;14.29;64.43
61351;DHT22;47119;49.130;9.218;2023-04-24T12:33:44;14.24;64.12
61351;DHT22;47119;49.130;9.218;2023-04-24T12:36:11;14.20;64.47
61351;DHT22;47119;49.130;9.218;2023-04-24T12:38:39;14.20;64.63
61351;DHT22;47119;49.130;9.218;2023-04-24T12:41:08;14.26;64.50
61351;DHT22;47119;49.130;9.218;2023-04-24T12:43:37;14.25;65.15
61351;DHT22;47119;49.130;9.218;2023-04-24T12:46:05;14.28;65.06
61351;DHT22;47119;49.130;9.218;2023-04-24T12:48:38;14.26;65.30
61351;DHT22;47119;49.130;9.218;2023-04-24T12:51:05;14.24;65.49
61351;DHT22;47119;49.130;9.218;2023-04-24T12:53:32;14.24;65.11
61351;DHT22;47119;49.130;9.218;2023-04-24T12:55:59;14.32;64.98
61351;DHT22;47119;49.130;9.218;2023-04-24T12:58:26;14.33;64.66
61351;DHT22;47119;49.130;9.218;2023-04-24T13:00:54;14.35;64.59
61351;DHT22;47119;49.130;9.218;2023-04-24T13:03:34;14.38;64.56
61351;DHT22;47119;49.130;9.218;2023-04-24T13:07:09;14.39;64.72
61351;DHT22;47119;49.130;9.218;2023-04-24T13:10:52;14.38;65.32
61351;DHT22;47119;49.130;9.218;2023-04-24T13:14:17;14.38;65.71
61351;DHT22;47119;49.130;9.218;2023-04-24T13:17:06;14.41;65.19
61351;DHT22;47119;49.130;9.218;2023-04-24T13:20:00;14.42;65.23
61351;DHT22;47119;49.130;9.218;2023-04-24T13:22:33;14.43;65.25
61351;DHT22;47119;49.130;9.218;2023-04-24T13:25:14;14.42;65.39
61351;DHT22;47119;49.130;9.218;2023-04-24T13:27:58;14.36;64.87
61351;DHT22;47119;49.130;9.218;2023-04-24T13:31:02;14.41;64.80
61351;DHT22;47119;49.130;9.218;2023-04-24T13:34:00;14.38;64.92
61351;DHT22;47119;49.130;9.218;2023-04-24T13:37:01;14.38;64.86
61351;DHT22;47119;49.130;9.218;2023-04-24T13:40:37;14.33;64.57
61351;DHT22;47119;49.130;9.218;2023-04-24T13:43:35;14.31;64.78
61351;DHT22;47119;49.130;9.218;2023-04-24T13:46:07;14.31;64.25
61351;DHT22;47119;49.130;9.218;2023-04-24T13:48:46;14.32;64.36
61351;DHT22;47119;49.130;9.218;2023-04-24T13:51:28;14.36;64.46
61351;DHT22;47119;49.130;9.218;2023-04-24T13:54:04;14.35;64.59
61351;DHT22;47119;49.130;9.218;2023-04-24T13:56:38;14.36;64.72
61351;DHT22;47119;49.130;9.218;2023-04-24T13:59:07;14.41;64.34
61351;DHT22;47119;49.130;9.218;2023-04-24T14:01:38;14.39;63.73
61351;DHT22;47119;49.130;9.218;2023-04-24T14:04:07;14.39;64.63
61351;DHT22;47119;49.130;9.218;2023-04-24T14:06:39;14.43;64.61
61351;DHT22;47119;49.130;9.218;2023-04-24T14:09:19;14.32;63.75
61351;DHT22;47119;49.130;9.218;2023-04-24T14:12:39;14.31;63.66
61351;DHT22;47119;49.130;9.218;2023-04-24T14:15:09;14.31;63.14
61351;DHT22;47119;49.130;9.218;2023-04-24T14:17:44;14.33;63.69
61351;DHT22;47119;49.130;9.218;2023-04-24T14:23:37;14.36;63.33
61351;DHT22;47119;49.130;9.218;2023-04-24T14:27:07;14.42;63.09
61351;DHT22;47119;49.130;9.218;2023-04-24T14:32:30;14.42;63.51
61351;DHT22;47119;49.130;9.218;2023-04-24T14:35:05;14.41;63.21
61351;DHT22;47119;49.130;9.218;2023-04-24T14:37:52;14.41;63.06
61351;DHT22;47119;49.130;9.218;2023-04-24T14:40:21;14.42;63.06
61351;DHT22;47119;49.130;9.218;2023-04-24T14:42:52;14.39;63.16
61351;DHT22;47119;49.130;9.218;2023-04-24T14:45:19;14.38;63.37
61351;DHT22;47119;49.130;9.218;2023-04-24T14:47:52;14.41;63.04
61351;DHT22;47119;49.130;9.218;2023-04-24T14:50:23;14.39;63.74
61351;DHT22;47119;49.130;9.218;2023-04-24T14:52:53;14.38;62.75
61351;DHT22;47119;49.130;9.218;2023-04-24T14:55:27;14.42;62.95
61351;DHT22;47119;49.130;9.218;2023-04-24T14:57:56;14.45;63.22
61351;DHT22;47119;49.130;9.218;2023-04-24T15:00:23;14.43;63.39
61351;DHT22;47119;49.130;9.218;2023-04-24T15:02:52;14.42;63.62
61351;DHT22;47119;49.130;9.218;2023-04-24T15:05:20;14.43;63.37
61351;DHT22;47119;49.130;9.218;2023-04-24T15:16:26;14.45;63.60
61351;DHT22;47119;49.130;9.218;2023-04-24T15:18:58;14.46;63.32
61351;DHT22;47119;49.130;9.218;2023-04-24T15:21:40;14.45;63.46
61351;DHT22;47119;49.130;9.218;2023-04-24T15:24:40;14.48;63.62
61351;DHT22;47119;49.130;9.218;2023-04-24T15:29:00;14.48;63.80
61351;DHT22;47119;49.130;9.218;2023-04-24T15:36:09;14.48;63.68
61351;DHT22;47119;49.130;9.218;2023-04-24T15:38:54;14.48;63.73
61351;DHT22;47119;49.130;9.218;2023-04-24T15:41:21;14.45;63.24
61351;DHT22;47119;49.130;9.218;2023-04-24T15:43:49;14.46;63.07
61351;DHT22;47119;49.130;9.218;2023-04-24T15:46:20;14.45;63.06
61351;DHT22;47119;49.130;9.218;2023-04-24T15:48:48;14.43;62.90
61351;DHT22;47119;49.130;9.218;2023-04-24T15:51:30;14.45;62.70
61351;DHT22;47119;49.130;9.218;2023-04-24T15:53:57;14.42;63.49
61351;DHT22;47119;49.130;9.218;2023-04-24T15:56:25;14.43;62.50
61351;DHT22;47119;49.130;9.218;2023-04-24T15:58:52;14.42;63.59
61351;DHT22;47119;49.130;9.218;2023-04-24T16:01:20;14.43;62.85
61351;DHT22;47119;49.130;9.218;2023-04-24T16:03:48;14.45;63.28
61351;DHT22;47119;49.130;9.218;2023-04-24T16:06:16;14.46;62.79
61351;DHT22;47119;49.130;9.218;2023-04-24T16:08:43;14.42;63.19
61351;DHT22;47119;49.130;9.218;2023-04-24T16:11:11;14.41;62.50
61351;DHT22;47119;49.130;9.218;2023-04-24T16:13:41;14.42;62.74
61351;DHT22;47119;49.130;9.218;2023-04-24T16:16:09;14.41;62.37
61351;DHT22;47119;49.130;9.218;2023-04-24T16:18:36;14.41;62.30
61351;DHT22;47119;49.130;9.218;2023-04-24T16:21:06;14.42;61.66
61351;DHT22;47119;49.130;9.218;2023-04-24T16:23:34;14.36;62.23
61351;DHT22;47119;49.130;9.218;2023-04-24T16:26:01;14.35;62.03
61351;DHT22;47119;49.130;9.218;2023-04-24T16:28:29;14.38;61.67
61351;DHT22;47119;49.130;9.218;2023-04-24T16:30:58;14.38;62.63
61351;DHT22;47119;49.130;9.218;2023-04-24T16:33:28;14.41;62.87
61351;DHT22;47119;49.130;9.218;2023-04-24T16:35:57;14.39;62.68
61351;DHT22;47119;49.130;9.218;2023-04-24T16:38:26;14.39;62.85
61351;DHT22;47119;49.130;9.218;2023-04-24T16:40:53;14.39;62.50
61351;DHT22;47119;49.130;9.218;2023-04-24T16:43:20;14.35;62.65
61351;DHT22;47119;49.130;9.218;2023-04-24T16:45:51;14.36;62.46
61351;DHT22;47119;49.130;9.218;2023-04-24T16:48:21;14.38;62.84
61351;DHT22;47119;49.130;9.218;2023-04-24T16:50:50;14.33;62.99
61351;DHT22;47119;49.130;9.218;2023-04-24T16:53:45;14.32;63.10
61351;DHT22;47119;49.130;9.218;2023-04-24T16:56:13;14.33;63.25
61351;DHT22;47119;49.130;9.218;2023-04-24T16:58:41;14.28;62.89
61351;DHT22;47119;49.130;9.218;2023-04-24T17:01:15;14.26;62.84
61351;DHT22;47119;49.130;9.218;2023-04-24T17:03:43;14.26;63.23
61351;DHT22;47119;49.130;9.218;2023-04-24T17:06:11;14.21;64.36
61351;DHT22;47119;49.130;9.218;2023-04-24T17:08:38;14.14;65.73
61351;DHT22;47119;49.130;9.218;2023-04-24T17:11:07;14.07;66.19